sensor_id;sensor_type;location;lat;lon;timestamp;pressure;altitude;pressure_sealevel;temperature;humidity
77574;BME280;66710;48.868;9.080;2023-05-07T00:00:00;97916.16;;;12.42;78.91
77574;BME280;66710;48.868;9.080;2023-05-07T00:02:26;97910.47;;;12.38;79.03
77574;BME280;66710;48.868;9.080;2023-05-07T00:04:51;97909.66;;;12.38;79.20
77574;BME280;66710;48.868;9.080;2023-05-07T00:07:17;97908.00;;;12.37;79.00
77574;BME280;66710;48.868;9.080;2023-05-07T00:09:42;97906.69;;;12.34;78.16
77574;BME280;66710;48.868;9.080;2023-05-07T00:12:08;97911.59;;;12.37;80.24
77574;BME280;66710;48.868;9.080;2023-05-07T00:14:33;97913.78;;;12.30;80.74
77574;BME280;66710;48.868;9.080;2023-05-07T00:16:58;97917.13;;;12.27;79.12
77574;BME280;66710;48.868;9.080;2023-05-07T00:19:24;97905.69;;;12.25;79.03
77574;BME280;66710;48.868;9.080;2023-05-07T00:21:49;97904.56;;;12.26;79.79
77574;BME280;66710;48.868;9.080;2023-05-07T00:24:14;97902.38;;;12.23;79.95
77574;BME280;66710;48.868;9.080;2023-05-07T00:26:40;97891.47;;;12.23;79.14
77574;BME280;66710;48.868;9.080;2023-05-07T00:29:05;97898.03;;;12.22;79.38
77574;BME280;66710;48.868;9.080;2023-05-07T00:31:30;97891.78;;;12.21;78.80
77574;BME280;66710;48.868;9.080;2023-05-07T00:33:56;97895.38;;;12.11;80.30
77574;BME280;66710;48.868;9.080;2023-05-07T00:36:21;97897.63;;;12.04;80.71
77574;BME280;66710;48.868;9.080;2023-05-07T00:38:46;97888.06;;;12.02;80.80
77574;BME280;66710;48.868;9.080;2023-05-07T00:41:11;97888.16;;;11.97;80.65
77574;BME280;66710;48.868;9.080;2023-05-07T00:43:37;97889.47;;;11.99;80.77
77574;BME280;66710;48.868;9.080;2023-05-07T00:46:02;97888.97;;;11.92;81.59
77574;BME280;66710;48.868;9.080;2023-05-07T00:48:28;97891.44;;;11.93;81.25
77574;BME280;66710;48.868;9.080;2023-05-07T00:50:53;97887.06;;;11.87;81.57
77574;BME280;66710;48.868;9.080;2023-05-07T00:53:19;97891.19;;;11.85;81.80
77574;BME280;66710;48.868;9.080;2023-05-07T00:55:45;97882.47;;;11.83;82.05
77574;BME280;66710;48.868;9.080;2023-05-07T00:58:11;97883.00;;;11.85;82.73
77574;BME280;66710;48.868;9.080;2023-05-07T01:00:36;97883.81;;;11.85;81.93
77574;BME280;66710;48.868;9.080;2023-05-07T01:03:02;97879.47;;;11.84;81.39
77574;BME280;66710;48.868;9.080;2023-05-07T01:05:28;97883.28;;;11.83;81.47
77574;BME280;66710;48.868;9.080;2023-05-07T01:07:54;97882.47;;;11.83;81.96
77574;BME280;66710;48.868;9.080;2023-05-07T01:10:20;97886.03;;;11.78;81.46
77574;BME280;66710;48.868;9.080;2023-05-07T01:12:47;97889.59;;;11.73;81.29
77574;BME280;66710;48.868;9.080;2023-05-07T01:15:13;97881.75;;;11.67;81.01
77574;BME280;66710;48.868;9.080;2023-05-07T01:17:41;97881.50;;;11.63;80.85
77574;BME280;66710;48.868;9.080;2023-05-07T01:20:07;97878.69;;;11.73;82.05
77574;BME280;66710;48.868;9.080;2023-05-07T01:22:37;97887.47;;;11.70;81.60
77574;BME280;66710;48.868;9.080;2023-05-07T01:25:03;97889.94;;;11.67;81.37
77574;BME280;66710;48.868;9.080;2023-05-07T01:27:29;97891.69;;;11.52;83.11
77574;BME280;66710;48.868;9.080;2023-05-07T01:29:55;97886.50;;;11.51;82.85
77574;BME280;66710;48.868;9.080;2023-05-07T01:32:31;97885.41;;;11.47;83.27
77574;BME280;66710;48.868;9.080;2023-05-07T01:34:58;97886.25;;;11.47;82.89
77574;BME280;66710;48.868;9.080;2023-05-07T01:37:25;97879.41;;;11.45;83.17
77574;BME280;66710;48.868;9.080;2023-05-07T01:39:52;97884.09;;;11.39;83.26
77574;BME280;66710;48.868;9.080;2023-05-07T01:42:17;97886.28;;;11.37;83.10
77574;BME280;66710;48.868;9.080;2023-05-07T01:44:43;97883.03;;;11.35;82.75
77574;BME280;66710;48.868;9.080;2023-05-07T01:47:08;97883.84;;;11.35;82.80
77574;BME280;66710;48.868;9.080;2023-05-07T01:49:34;97878.91;;;11.43;83.53
77574;BME280;66710;48.868;9.080;2023-05-07T01:51:59;97874.81;;;11.40;83.14
77574;BME280;66710;48.868;9.080;2023-05-07T01:54:26;97876.19;;;11.37;82.86
77574;BME280;66710;48.868;9.080;2023-05-07T01:56:56;97881.03;;;11.51;81.51
77574;BME280;66710;48.868;9.080;2023-05-07T01:59:22;97879.94;;;11.47;83.08
77574;BME280;66710;48.868;9.080;2023-05-07T02:01:47;97884.28;;;11.53;80.68
77574;BME280;66710;48.868;9.080;2023-05-07T02:04:12;97881.84;;;11.51;81.62
77574;BME280;66710;48.868;9.080;2023-05-07T02:06:38;97887.59;;;11.50;81.59
77574;BME280;66710;48.868;9.080;2023-05-07T02:09:03;97881.00;;;11.56;81.73
77574;BME280;66710;48.868;9.080;2023-05-07T02:11:28;97883.44;;;11.57;83.18
77574;BME280;66710;48.868;9.080;2023-05-07T02:13:53;97879.38;;;11.55;81.93
77574;BME280;66710;48.868;9.080;2023-05-07T02:16:19;97886.75;;;11.54;82.61
77574;BME280;66710;48.868;9.080;2023-05-07T02:18:45;97880.78;;;11.47;82.73
77574;BME280;66710;48.868;9.080;2023-05-07T02:21:10;97878.06;;;11.47;82.98
77574;BME280;66710;48.868;9.080;2023-05-07T02:23:35;97885.16;;;11.43;83.08
77574;BME280;66710;48.868;9.080;2023-05-07T02:26:01;97886.81;;;11.39;83.25
77574;BME280;66710;48.868;9.080;2023-05-07T02:28:26;97886.28;;;11.42;83.78
77574;BME280;66710;48.868;9.080;2023-05-07T02:30:52;97881.59;;;11.48;83.44
77574;BME280;66710;48.868;9.080;2023-05-07T02:33:17;97890.38;;;11.34;83.32
77574;BME280;66710;48.868;9.080;2023-05-07T02:35:43;97888.53;;;11.25;83.10
77574;BME280;66710;48.868;9.080;2023-05-07T02:38:08;97882.28;;;11.19;83.97
77574;BME280;66710;48.868;9.080;2023-05-07T02:40:35;97883.09;;;11.19;83.54
77574;BME280;66710;48.868;9.080;2023-05-07T02:43:04;97881.97;;;11.20;83.42
77574;BME280;66710;48.868;9.080;2023-05-07T02:45:29;97884.69;;;11.26;84.41
77574;BME280;66710;48.868;9.080;2023-05-07T02:47:54;97884.13;;;11.29;83.77
77574;BME280;66710;48.868;9.080;2023-05-07T02:50:20;97877.91;;;11.18;83.31
77574;BME280;66710;48.868;9.080;2023-05-07T02:52:45;97878.78;;;11.08;84.57
77574;BME280;66710;48.868;9.080;2023-05-07T02:55:11;97869.25;;;11.00;83.65
77574;BME280;66710;48.868;9.080;2023-05-07T02:57:36;97879.09;;;10.96;85.29
77574;BME280;66710;48.868;9.080;2023-05-07T03:00:11;97866.84;;;10.89;85.96
77574;BME280;66710;48.868;9.080;2023-05-07T03:02:36;97870.41;;;10.89;85.36
77574;BME280;66710;48.868;9.080;2023-05-07T03:05:02;97865.78;;;10.85;85.57
77574;BME280;66710;48.868;9.080;2023-05-07T03:07:28;97862.81;;;10.76;86.21
77574;BME280;66710;48.868;9.080;2023-05-07T03:09:53;97868.78;;;10.78;86.29
77574;BME280;66710;48.868;9.080;2023-05-07T03:12:19;97856.56;;;10.75;85.98
77574;BME280;66710;48.868;9.080;2023-05-07T03:14:44;97861.47;;;10.73;86.21
77574;BME280;66710;48.868;9.080;2023-05-07T03:17:09;97861.19;;;10.80;86.71
77574;BME280;66710;48.868;9.080;2023-05-07T03:19:34;97860.88;;;10.81;86.41
77574;BME280;66710;48.868;9.080;2023-05-07T03:22:00;97858.41;;;10.85;87.00
77574;BME280;66710;48.868;9.080;2023-05-07T03:24:25;97853.03;;;10.70;86.20
77574;BME280;66710;48.868;9.080;2023-05-07T03:26:50;97862.28;;;10.63;86.73
77574;BME280;66710;48.868;9.080;2023-05-07T03:29:16;97857.41;;;10.60;86.82
77574;BME280;66710;48.868;9.080;2023-05-07T03:31:41;97848.69;;;10.63;86.64
77574;BME280;66710;48.868;9.080;2023-05-07T03:34:06;97857.38;;;10.66;86.90
77574;BME280;66710;48.868;9.080;2023-05-07T03:36:31;97855.22;;;10.62;86.34
77574;BME280;66710;48.868;9.080;2023-05-07T03:38:57;97851.69;;;10.57;86.68
77574;BME280;66710;48.868;9.080;2023-05-07T03:41:22;97856.06;;;10.53;87.27
77574;BME280;66710;48.868;9.080;2023-05-07T03:43:48;97850.34;;;10.49;87.77
77574;BME280;66710;48.868;9.080;2023-05-07T03:46:13;97854.19;;;10.43;86.66
77574;BME280;66710;48.868;9.080;2023-05-07T03:48:38;97852.81;;;10.40;87.77
77574;BME280;66710;48.868;9.080;2023-05-07T03:51:03;97868.63;;;10.38;87.87
77574;BME280;66710;48.868;9.080;2023-05-07T03:53:29;97864.81;;;10.34;88.32
77574;BME280;66710;48.868;9.080;2023-05-07T03:55:57;97871.88;;;10.35;87.55
77574;BME280;66710;48.868;9.080;2023-05-07T03:58:22;97867.53;;;10.34;88.58
77574;BME280;66710;48.868;9.080;2023-05-07T04:00:47;97858.00;;;10.32;88.90
77574;BME280;66710;48.868;9.080;2023-05-07T04:03:13;97856.91;;;10.38;88.96
77574;BME280;66710;48.868;9.080;2023-05-07T04:05:39;97860.72;;;10.37;88.54
77574;BME280;66710;48.868;9.080;2023-05-07T04:08:04;97868.34;;;10.35;88.23
77574;BME280;66710;48.868;9.080;2023-05-07T04:10:30;97873.25;;;10.43;88.18
77574;BME280;66710;48.868;9.080;2023-05-07T04:12:55;97867.81;;;10.43;88.28
77574;BME280;66710;48.868;9.080;2023-05-07T04:15:22;97871.34;;;10.49;87.29
77574;BME280;66710;48.868;9.080;2023-05-07T04:17:47;97881.94;;;10.55;86.90
77574;BME280;66710;48.868;9.080;2023-05-07T04:20:15;97872.94;;;10.55;87.36
77574;BME280;66710;48.868;9.080;2023-05-07T04:22:41;97879.22;;;10.55;86.99
77574;BME280;66710;48.868;9.080;2023-05-07T04:25:07;97881.94;;;10.55;87.61
77574;BME280;66710;48.868;9.080;2023-05-07T04:27:34;97883.84;;;10.55;87.18
77574;BME280;66710;48.868;9.080;2023-05-07T04:29:59;97885.75;;;10.54;87.18
77574;BME280;66710;48.868;9.080;2023-05-07T04:32:25;97883.56;;;10.56;87.13
77574;BME280;66710;48.868;9.080;2023-05-07T04:34:51;97892.84;;;10.55;87.59
77574;BME280;66710;48.868;9.080;2023-05-07T04:37:16;97890.38;;;10.54;87.53
77574;BME280;66710;48.868;9.080;2023-05-07T04:39:42;97892.59;;;10.52;87.79
77574;BME280;66710;48.868;9.080;2023-05-07T04:42:07;97897.44;;;10.55;87.43
77574;BME280;66710;48.868;9.080;2023-05-07T04:44:37;97897.97;;;10.62;86.55
77574;BME280;66710;48.868;9.080;2023-05-07T04:47:02;97896.91;;;10.68;86.24
77574;BME280;66710;48.868;9.080;2023-05-07T04:49:27;97900.97;;;10.71;86.07
77574;BME280;66710;48.868;9.080;2023-05-07T04:51:53;97903.41;;;10.77;85.15
77574;BME280;66710;48.868;9.080;2023-05-07T04:54:18;97905.84;;;10.79;85.42
77574;BME280;66710;48.868;9.080;2023-05-07T04:56:43;97905.06;;;10.78;85.76
77574;BME280;66710;48.868;9.080;2023-05-07T04:59:09;97902.06;;;10.75;86.17
77574;BME280;66710;48.868;9.080;2023-05-07T05:01:34;97908.59;;;10.74;86.31
77574;BME280;66710;48.868;9.080;2023-05-07T05:04:00;97909.13;;;10.76;85.71
77574;BME280;66710;48.868;9.080;2023-05-07T05:06:25;97915.97;;;10.78;86.15
77574;BME280;66710;48.868;9.080;2023-05-07T05:08:51;97902.59;;;10.82;85.67
77574;BME280;66710;48.868;9.080;2023-05-07T05:11:16;97907.72;;;10.89;85.01
77574;BME280;66710;48.868;9.080;2023-05-07T05:13:42;97900.66;;;10.93;84.62
77574;BME280;66710;48.868;9.080;2023-05-07T05:16:07;97905.50;;;11.06;84.99
77574;BME280;66710;48.868;9.080;2023-05-07T05:18:32;97914.75;;;11.15;85.17
77574;BME280;66710;48.868;9.080;2023-05-07T05:20:58;97927.78;;;11.24;83.17
77574;BME280;66710;48.868;9.080;2023-05-07T05:23:23;97925.84;;;11.29;83.04
77574;BME280;66710;48.868;9.080;2023-05-07T05:25:49;97932.91;;;11.41;83.13
77574;BME280;66710;48.868;9.080;2023-05-07T05:28:14;97926.00;;;11.58;83.96
77574;BME280;66710;48.868;9.080;2023-05-07T05:30:40;97925.31;;;11.82;81.41
77574;BME280;66710;48.868;9.080;2023-05-07T05:33:05;97919.16;;;12.11;81.80
77574;BME280;66710;48.868;9.080;2023-05-07T05:35:31;97915.84;;;12.48;80.26
77574;BME280;66710;48.868;9.080;2023-05-07T05:37:57;97922.50;;;12.66;80.75
77574;BME280;66710;48.868;9.080;2023-05-07T05:40:22;97924.16;;;12.67;79.19
77574;BME280;66710;48.868;9.080;2023-05-07T05:42:47;97929.69;;;13.11;79.03
77574;BME280;66710;48.868;9.080;2023-05-07T05:45:13;97928.94;;;13.05;80.43
77574;BME280;66710;48.868;9.080;2023-05-07T05:47:38;97930.28;;;12.83;79.43
77574;BME280;66710;48.868;9.080;2023-05-07T05:50:05;97928.00;;;12.90;79.07
77574;BME280;66710;48.868;9.080;2023-05-07T05:52:31;97923.59;;;12.95;78.48
77574;BME280;66710;48.868;9.080;2023-05-07T05:54:56;97917.31;;;13.18;77.59
77574;BME280;66710;48.868;9.080;2023-05-07T05:57:22;97938.09;;;13.19;77.65
77574;BME280;66710;48.868;9.080;2023-05-07T05:59:47;97928.94;;;13.34;76.90
77574;BME280;66710;48.868;9.080;2023-05-07T06:02:12;97938.22;;;13.33;75.65
77574;BME280;66710;48.868;9.080;2023-05-07T06:04:38;97932.34;;;13.45;75.83
77574;BME280;66710;48.868;9.080;2023-05-07T06:07:03;97928.53;;;13.41;77.47
77574;BME280;66710;48.868;9.080;2023-05-07T06:09:28;97928.59;;;13.79;77.06
77574;BME280;66710;48.868;9.080;2023-05-07T06:11:54;97930.72;;;14.20;75.15
77574;BME280;66710;48.868;9.080;2023-05-07T06:14:19;97937.16;;;14.29;75.40
77574;BME280;66710;48.868;9.080;2023-05-07T06:16:45;97941.09;;;14.23;75.73
77574;BME280;66710;48.868;9.080;2023-05-07T06:19:10;97937.47;;;14.28;76.28
77574;BME280;66710;48.868;9.080;2023-05-07T06:21:35;97936.19;;;14.39;75.63
77574;BME280;66710;48.868;9.080;2023-05-07T06:24:01;97938.56;;;14.27;76.64
77574;BME280;66710;48.868;9.080;2023-05-07T06:26:26;97938.03;;;14.44;75.49
77574;BME280;66710;48.868;9.080;2023-05-07T06:28:51;97940.88;;;14.38;76.56
77574;BME280;66710;48.868;9.080;2023-05-07T06:31:18;97950.81;;;14.67;75.70
77574;BME280;66710;48.868;9.080;2023-05-07T06:33:46;97940.44;;;14.97;73.84
77574;BME280;66710;48.868;9.080;2023-05-07T06:36:11;97946.44;;;15.27;73.36
77574;BME280;66710;48.868;9.080;2023-05-07T06:38:37;97953.75;;;15.31;71.88
77574;BME280;66710;48.868;9.080;2023-05-07T06:41:02;97956.00;;;15.43;73.02
77574;BME280;66710;48.868;9.080;2023-05-07T06:43:27;97942.56;;;15.69;71.35
77574;BME280;66710;48.868;9.080;2023-05-07T06:45:52;97943.16;;;15.66;70.87
77574;BME280;66710;48.868;9.080;2023-05-07T06:48:18;97943.34;;;15.70;71.60
77574;BME280;66710;48.868;9.080;2023-05-07T06:50:43;97947.00;;;15.93;69.95
77574;BME280;66710;48.868;9.080;2023-05-07T06:53:08;97936.16;;;16.10;70.61
77574;BME280;66710;48.868;9.080;2023-05-07T06:55:34;97923.50;;;16.23;69.23
77574;BME280;66710;48.868;9.080;2023-05-07T06:57:59;97926.44;;;16.49;67.53
77574;BME280;66710;48.868;9.080;2023-05-07T07:00:26;97943.91;;;16.76;66.13
77574;BME280;66710;48.868;9.080;2023-05-07T07:02:53;97934.34;;;16.96;64.31
77574;BME280;66710;48.868;9.080;2023-05-07T07:05:19;97926.84;;;17.19;64.41
77574;BME280;66710;48.868;9.080;2023-05-07T07:07:47;97934.28;;;17.76;62.87
77574;BME280;66710;48.868;9.080;2023-05-07T07:10:24;97935.06;;;17.51;61.38
77574;BME280;66710;48.868;9.080;2023-05-07T07:12:49;97934.91;;;17.65;61.25
77574;BME280;66710;48.868;9.080;2023-05-07T07:15:15;97925.53;;;17.83;60.83
77574;BME280;66710;48.868;9.080;2023-05-07T07:17:40;97926.22;;;17.97;60.51
77574;BME280;66710;48.868;9.080;2023-05-07T07:20:06;97928.84;;;18.03;60.19
77574;BME280;66710;48.868;9.080;2023-05-07T07:22:32;97920.41;;;17.90;61.09
77574;BME280;66710;48.868;9.080;2023-05-07T07:24:57;97919.94;;;18.06;59.87
77574;BME280;66710;48.868;9.080;2023-05-07T07:27:23;97929.81;;;18.24;60.24
77574;BME280;66710;48.868;9.080;2023-05-07T07:29:49;97926.34;;;18.88;58.00
77574;BME280;66710;48.868;9.080;2023-05-07T07:32:14;97929.13;;;18.88;57.28
77574;BME280;66710;48.868;9.080;2023-05-07T07:34:39;97931.25;;;19.89;55.85
77574;BME280;66710;48.868;9.080;2023-05-07T07:37:05;97932.56;;;19.83;55.41
77574;BME280;66710;48.868;9.080;2023-05-07T07:39:34;97939.69;;;20.35;54.73
77574;BME280;66710;48.868;9.080;2023-05-07T07:42:00;97940.41;;;20.02;54.63
77574;BME280;66710;48.868;9.080;2023-05-07T07:44:27;97939.38;;;19.56;56.29
77574;BME280;66710;48.868;9.080;2023-05-07T07:46:53;97935.09;;;19.38;57.21
77574;BME280;66710;48.868;9.080;2023-05-07T07:49:18;97937.69;;;18.96;57.20
77574;BME280;66710;48.868;9.080;2023-05-07T07:51:44;97939.84;;;18.64;58.93
77574;BME280;66710;48.868;9.080;2023-05-07T07:54:09;97943.44;;;18.38;57.77
77574;BME280;66710;48.868;9.080;2023-05-07T07:56:35;97947.81;;;18.39;58.96
77574;BME280;66710;48.868;9.080;2023-05-07T07:59:00;97940.19;;;18.10;59.36
77574;BME280;66710;48.868;9.080;2023-05-07T08:01:25;97939.06;;;18.28;59.73
77574;BME280;66710;48.868;9.080;2023-05-07T08:03:51;97946.50;;;18.19;59.84
77574;BME280;66710;48.868;9.080;2023-05-07T08:06:16;97946.50;;;18.45;60.47
77574;BME280;66710;48.868;9.080;2023-05-07T08:08:41;97941.94;;;18.67;59.85
77574;BME280;66710;48.868;9.080;2023-05-07T08:11:07;97943.13;;;18.31;59.03
77574;BME280;66710;48.868;9.080;2023-05-07T08:13:33;97942.00;;;18.32;59.79
77574;BME280;66710;48.868;9.080;2023-05-07T08:15:58;97946.66;;;18.66;59.84
77574;BME280;66710;48.868;9.080;2023-05-07T08:18:25;97946.16;;;18.64;60.76
77574;BME280;66710;48.868;9.080;2023-05-07T08:20:51;97941.91;;;18.75;59.36
77574;BME280;66710;48.868;9.080;2023-05-07T08:23:16;97947.13;;;18.77;59.24
77574;BME280;66710;48.868;9.080;2023-05-07T08:25:41;97942.53;;;18.99;59.18
77574;BME280;66710;48.868;9.080;2023-05-07T08:28:08;97946.81;;;19.35;58.51
77574;BME280;66710;48.868;9.080;2023-05-07T08:30:33;97939.56;;;19.51;57.82
77574;BME280;66710;48.868;9.080;2023-05-07T08:33:00;97945.75;;;20.29;57.25
77574;BME280;66710;48.868;9.080;2023-05-07T08:35:25;97950.09;;;20.38;55.89
77574;BME280;66710;48.868;9.080;2023-05-07T08:37:51;97948.72;;;20.66;54.66
77574;BME280;66710;48.868;9.080;2023-05-07T08:40:17;97941.19;;;20.99;53.57
77574;BME280;66710;48.868;9.080;2023-05-07T08:42:44;97938.25;;;21.78;52.53
77574;BME280;66710;48.868;9.080;2023-05-07T08:45:10;97946.72;;;21.70;52.37
77574;BME280;66710;48.868;9.080;2023-05-07T08:47:42;97935.91;;;22.05;49.97
77574;BME280;66710;48.868;9.080;2023-05-07T08:50:10;97937.72;;;21.61;49.86
77574;BME280;66710;48.868;9.080;2023-05-07T08:52:36;97939.56;;;22.34;50.46
77574;BME280;66710;48.868;9.080;2023-05-07T08:55:02;97939.16;;;22.48;50.06
77574;BME280;66710;48.868;9.080;2023-05-07T08:57:28;97942.81;;;22.36;50.72
77574;BME280;66710;48.868;9.080;2023-05-07T08:59:53;97945.59;;;22.36;50.34
77574;BME280;66710;48.868;9.080;2023-05-07T09:02:19;97948.34;;;22.93;50.21
77574;BME280;66710;48.868;9.080;2023-05-07T09:04:44;97951.81;;;23.34;48.57
77574;BME280;66710;48.868;9.080;2023-05-07T09:07:09;97940.63;;;22.86;48.58
77574;BME280;66710;48.868;9.080;2023-05-07T09:09:35;97941.09;;;23.04;47.03
77574;BME280;66710;48.868;9.080;2023-05-07T09:12:00;97935.06;;;22.86;47.50
77574;BME280;66710;48.868;9.080;2023-05-07T09:14:27;97937.47;;;23.16;48.00
77574;BME280;66710;48.868;9.080;2023-05-07T09:16:53;97930.78;;;23.04;46.93
77574;BME280;66710;48.868;9.080;2023-05-07T09:19:25;97919.06;;;23.11;45.25
77574;BME280;66710;48.868;9.080;2023-05-07T09:22:01;97929.38;;;23.11;47.79
77574;BME280;66710;48.868;9.080;2023-05-07T09:24:27;97926.16;;;23.56;46.11
77574;BME280;66710;48.868;9.080;2023-05-07T09:26:57;97913.09;;;23.76;45.98
77574;BME280;66710;48.868;9.080;2023-05-07T09:29:23;97916.34;;;22.99;48.00
77574;BME280;66710;48.868;9.080;2023-05-07T09:31:48;97911.78;;;23.38;46.21
77574;BME280;66710;48.868;9.080;2023-05-07T09:34:13;97914.34;;;23.95;44.79
77574;BME280;66710;48.868;9.080;2023-05-07T09:36:39;97915.41;;;24.45;44.59
77574;BME280;66710;48.868;9.080;2023-05-07T09:39:04;97913.88;;;23.93;44.47
77574;BME280;66710;48.868;9.080;2023-05-07T09:41:30;97918.97;;;24.46;44.64
77574;BME280;66710;48.868;9.080;2023-05-07T09:43:57;97915.03;;;24.27;45.25
77574;BME280;66710;48.868;9.080;2023-05-07T09:46:30;97924.47;;;24.42;45.38
77574;BME280;66710;48.868;9.080;2023-05-07T09:48:57;97913.63;;;24.95;44.46
77574;BME280;66710;48.868;9.080;2023-05-07T09:51:28;97911.81;;;25.53;44.64
77574;BME280;66710;48.868;9.080;2023-05-07T09:53:56;97920.16;;;25.26;43.64
77574;BME280;66710;48.868;9.080;2023-05-07T09:56:22;97921.56;;;24.97;42.78
77574;BME280;66710;48.868;9.080;2023-05-07T09:58:48;97916.91;;;25.74;42.43
77574;BME280;66710;48.868;9.080;2023-05-07T10:01:16;97908.47;;;25.44;41.54
77574;BME280;66710;48.868;9.080;2023-05-07T10:03:43;97911.09;;;25.33;43.73
77574;BME280;66710;48.868;9.080;2023-05-07T10:06:10;97906.38;;;25.90;43.68
77574;BME280;66710;48.868;9.080;2023-05-07T10:08:36;97894.69;;;25.54;43.15
77574;BME280;66710;48.868;9.080;2023-05-07T10:11:03;97899.59;;;25.61;42.20
77574;BME280;66710;48.868;9.080;2023-05-07T10:13:29;97895.44;;;25.78;41.30
77574;BME280;66710;48.868;9.080;2023-05-07T10:15:55;97892.25;;;25.26;42.52
77574;BME280;66710;48.868;9.080;2023-05-07T10:18:21;97892.34;;;25.10;43.91
77574;BME280;66710;48.868;9.080;2023-05-07T10:20:56;97887.06;;;25.78;44.75
77574;BME280;66710;48.868;9.080;2023-05-07T10:23:27;97890.41;;;25.14;43.21
77574;BME280;66710;48.868;9.080;2023-05-07T10:25:53;97883.22;;;24.09;43.19
77574;BME280;66710;48.868;9.080;2023-05-07T10:28:20;97890.59;;;23.81;44.93
77574;BME280;66710;48.868;9.080;2023-05-07T10:33:24;97887.13;;;23.53;45.90
77574;BME280;66710;48.868;9.080;2023-05-07T10:35:57;97884.66;;;23.16;45.21
77574;BME280;66710;48.868;9.080;2023-05-07T10:38:24;97884.47;;;23.76;43.94
77574;BME280;66710;48.868;9.080;2023-05-07T10:40:50;97887.44;;;23.83;46.49
77574;BME280;66710;48.868;9.080;2023-05-07T10:43:16;97881.53;;;23.69;47.07
77574;BME280;66710;48.868;9.080;2023-05-07T10:45:41;97890.53;;;22.98;47.60
77574;BME280;66710;48.868;9.080;2023-05-07T10:48:12;97887.94;;;22.45;48.71
77574;BME280;66710;48.868;9.080;2023-05-07T10:50:44;97884.84;;;22.63;49.14
77574;BME280;66710;48.868;9.080;2023-05-07T10:56:23;97888.00;;;22.21;51.02
77574;BME280;66710;48.868;9.080;2023-05-07T10:58:37;97880.41;;;22.46;49.90
77574;BME280;66710;48.868;9.080;2023-05-07T11:01:03;97877.28;;;22.07;50.53
77574;BME280;66710;48.868;9.080;2023-05-07T11:03:29;97878.53;;;22.09;50.10
77574;BME280;66710;48.868;9.080;2023-05-07T11:06:15;97879.25;;;22.06;50.83
77574;BME280;66710;48.868;9.080;2023-05-07T11:11:17;97880.47;;;22.33;49.48
77574;BME280;66710;48.868;9.080;2023-05-07T11:13:47;97882.88;;;22.35;50.29
77574;BME280;66710;48.868;9.080;2023-05-07T11:18:48;97878.16;;;22.51;49.83
77574;BME280;66710;48.868;9.080;2023-05-07T11:21:32;97878.03;;;22.76;48.48
77574;BME280;66710;48.868;9.080;2023-05-07T11:23:58;97875.25;;;22.32;49.01
77574;BME280;66710;48.868;9.080;2023-05-07T11:26:25;97870.56;;;22.48;49.16
77574;BME280;66710;48.868;9.080;2023-05-07T11:28:51;97869.13;;;22.26;49.18
77574;BME280;66710;48.868;9.080;2023-05-07T11:31:21;97873.94;;;22.42;49.55
77574;BME280;66710;48.868;9.080;2023-05-07T11:33:46;97871.22;;;22.29;49.24
77574;BME280;66710;48.868;9.080;2023-05-07T11:36:12;97867.09;;;22.11;50.96
77574;BME280;66710;48.868;9.080;2023-05-07T11:38:38;97865.97;;;22.40;50.79
77574;BME280;66710;48.868;9.080;2023-05-07T11:41:03;97866.69;;;21.96;50.71
77574;BME280;66710;48.868;9.080;2023-05-07T11:43:32;97862.75;;;21.98;51.46
77574;BME280;66710;48.868;9.080;2023-05-07T11:46:09;97867.63;;;22.01;51.13
77574;BME280;66710;48.868;9.080;2023-05-07T11:48:35;97864.66;;;22.09;50.41
77574;BME280;66710;48.868;9.080;2023-05-07T11:51:05;97855.81;;;22.32;50.67
77574;BME280;66710;48.868;9.080;2023-05-07T11:53:38;97861.16;;;22.25;52.33
77574;BME280;66710;48.868;9.080;2023-05-07T11:56:11;97861.00;;;22.05;51.40
77574;BME280;66710;48.868;9.080;2023-05-07T11:58:37;97870.44;;;22.17;51.53
77574;BME280;66710;48.868;9.080;2023-05-07T12:01:03;97881.53;;;22.29;51.13
77574;BME280;66710;48.868;9.080;2023-05-07T12:03:28;97889.03;;;22.16;51.98
77574;BME280;66710;48.868;9.080;2023-05-07T12:05:54;97891.22;;;22.23;51.49
77574;BME280;66710;48.868;9.080;2023-05-07T12:08:21;97890.38;;;22.06;49.86
77574;BME280;66710;48.868;9.080;2023-05-07T12:10:49;97883.03;;;22.14;51.46
77574;BME280;66710;48.868;9.080;2023-05-07T12:13:18;97888.94;;;22.12;52.07
77574;BME280;66710;48.868;9.080;2023-05-07T12:15:44;97880.50;;;22.09;51.48
77574;BME280;66710;48.868;9.080;2023-05-07T12:18:11;97875.44;;;21.99;51.05
77574;BME280;66710;48.868;9.080;2023-05-07T12:20:38;97871.50;;;22.12;50.63
77574;BME280;66710;48.868;9.080;2023-05-07T12:23:04;97871.78;;;21.94;51.09
77574;BME280;66710;48.868;9.080;2023-05-07T12:25:30;97869.06;;;22.10;51.72
77574;BME280;66710;48.868;9.080;2023-05-07T12:27:56;97878.09;;;22.07;50.22
77574;BME280;66710;48.868;9.080;2023-05-07T12:30:24;97880.75;;;22.04;50.00
77574;BME280;66710;48.868;9.080;2023-05-07T12:32:53;97885.56;;;21.78;50.77
77574;BME280;66710;48.868;9.080;2023-05-07T12:35:26;97890.25;;;20.67;56.65
77574;BME280;66710;48.868;9.080;2023-05-07T12:37:56;97886.25;;;20.22;58.33
77574;BME280;66710;48.868;9.080;2023-05-07T12:40:24;97889.25;;;19.96;57.86
77574;BME280;66710;48.868;9.080;2023-05-07T12:42:52;97891.03;;;19.92;57.57
77574;BME280;66710;48.868;9.080;2023-05-07T12:45:20;97897.13;;;19.85;55.96
77574;BME280;66710;48.868;9.080;2023-05-07T12:47:46;97901.69;;;19.51;57.26
77574;BME280;66710;48.868;9.080;2023-05-07T12:50:15;97899.50;;;19.36;58.92
77574;BME280;66710;48.868;9.080;2023-05-07T12:52:40;97902.97;;;19.24;59.09
77574;BME280;66710;48.868;9.080;2023-05-07T12:55:09;97919.72;;;19.19;60.30
77574;BME280;66710;48.868;9.080;2023-05-07T12:57:38;97914.78;;;18.95;62.74
77574;BME280;66710;48.868;9.080;2023-05-07T13:00:05;97916.31;;;18.49;66.38
77574;BME280;66710;48.868;9.080;2023-05-07T13:02:34;97913.25;;;18.33;68.33
77574;BME280;66710;48.868;9.080;2023-05-07T13:05:02;97917.97;;;18.32;68.19